Date,TemperatureHighF,TemperatureAvgF,TemperatureLowF,DewpointHighF,DewpointAvgF,DewpointLowF,HumidityHigh,HumidityAvg,HumidityLow,PressureMaxIn,PressureMinIn,WindSpeedMaxMPH,WindSpeedAvgMPH,GustSpeedMaxMPH,PrecipitationSumIn
2013-6-1,78,74,71,72,69,64,93,85,75,30.09,29.98,32,13,32,0.00
2013-6-2,76,73,71,72,69,66,94,87,78,30.10,30.02,29,11,29,0.00
2013-6-3,78,73,71,70,67,62,88,81,67,30.10,30.00,37,12,37,0.00
2013-6-4,79,73,71,69,67,61,89,81,60,30.06,29.97,29,12,32,0.00
2013-6-5,76,72,69,70,67,64,92,83,74,30.06,29.97,28,10,28,0.00
2013-6-6,76,72,67,69,67,65,94,84,75,30.06,29.94,28,10,28,0.06
2013-6-7,76,71,67,67,65,63,94,83,70,30.06,29.95,27,9,27,0.09
2013-6-8,76,72,68,70,67,64,90,83,76,30.07,29.98,27,9,28,0.03
2013-6-9,76,72,71,69,67,65,91,85,77,30.09,30.00,24,9,24,0.00
2013-6-10,76,72,70,70,68,65,91,84,76,30.07,30.00,28,9,28,0.00
2013-6-11,79,74,71,69,67,65,89,81,66,30.03,29.94,29,9,29,0.00
2013-6-12,77,73,71,71,67,61,91,81,65,30.09,29.98,32,12,32,0.00
2013-6-13,77,73,70,70,68,65,93,86,77,30.11,30.03,29,12,29,0.00
2013-6-14,75,72,70,69,67,66,92,85,76,30.09,29.99,27,11,27,0.00
2013-6-15,76,72,70,69,67,62,90,82,71,30.03,29.93,26,11,26,0.00
2013-6-16,71,71,70,67,66,65,87,85,83,29.98,29.92,22,10,23,0.00
2013-6-17,77,73,70,70,67,64,90,83,73,30.10,29.98,26,11,26,0.00
2013-6-18,80,74,70,71,68,65,90,83,72,30.08,29.98,32,11,32,0.00
2013-6-19,78,74,71,68,66,61,89,77,61,30.07,29.99,25,9,25,0.00
2013-6-20,77,72,68,70,67,64,94,84,71,30.07,29.97,28,8,28,0.07
2013-6-21,75,72,70,69,67,64,93,85,77,30.07,29.98,25,9,25,0.00
2013-6-22,78,73,70,70,67,65,89,83,68,30.11,30.01,29,11,30,0.00
2013-6-23,78,73,69,70,68,66,93,86,75,30.12,30.04,27,10,27,0.00
2013-6-24,78,73,69,68,66,61,93,79,63,30.11,30.04,24,10,24,0.00
2013-6-25,73,70,69,71,68,66,96,93,87,30.08,30.01,19,7,19,0.12
2013-6-26,76,72,69,70,68,65,93,86,78,30.07,30.00,23,8,23,0.01
2013-6-27,78,73,70,68,66,62,88,78,64,30.03,29.96,23,9,23,0.00
2013-6-28,78,72,69,69,67,63,91,83,67,30.01,29.94,25,8,28,0.00
2013-6-29,80,73,70,70,67,62,89,81,65,30.03,29.93,30,9,30,0.00
2013-6-30,78,74,71,70,67,65,88,80,70,30.04,29.97,22,9,22,0.00